DAL832 KATL-KDCA
Flight info
| Callsign | DAL832 |
|---|---|
| Flight time | 1h 12m |
| Altitude | 37000 |
| Route | JACCC2 KELLN Q56 KIWII WAVES CAPSS4 |
| Aircraft | A320/M-SDE3FGHIRWY/LB1 |
Departure
| Time | 2026-05-07 03:31 |
|---|---|
| Airport | Hartsfield Jackson Atlanta International Airport (KATL) |
Arrival
| Time | 2026-05-07 04:44 |
|---|---|
| Airport | Ronald Reagan Washington National Airport (KDCA) |
| Time | Latitude | Longitude | Altitude | Speed | Heading |
|---|---|---|---|---|---|
| 2026-05-07 02:58 | 33.64048 | -84.42980 | 1007 ft | 0 kts | 112° |
| 2026-05-07 03:13 | 33.64056 | -84.43003 | 1006 ft | 4 kts | 111° |
| 2026-05-07 03:13 | 33.64065 | -84.43033 | 1006 ft | 4 kts | 110° |
| 2026-05-07 03:13 | 33.64073 | -84.43057 | 1006 ft | 3 kts | 112° |
| 2026-05-07 03:14 | 33.64078 | -84.43074 | 1006 ft | 1 kts | 110° |
| 2026-05-07 03:16 | 33.64068 | -84.43063 | 1006 ft | 5 kts | 153° |
| 2026-05-07 03:16 | 33.64029 | -84.43063 | 1006 ft | 6 kts | 182° |
| 2026-05-07 03:17 | 33.63979 | -84.43064 | 1006 ft | 8 kts | 179° |
| 2026-05-07 03:17 | 33.63915 | -84.43063 | 1006 ft | 10 kts | 179° |
| 2026-05-07 03:17 | 33.63841 | -84.43063 | 1006 ft | 12 kts | 180° |
| 2026-05-07 03:17 | 33.63790 | -84.43064 | 1006 ft | 4 kts | 180° |
| 2026-05-07 03:18 | 33.63777 | -84.43064 | 1006 ft | 0 kts | 181° |
| 2026-05-07 03:23 | 33.63757 | -84.43064 | 1006 ft | 9 kts | 181° |
| 2026-05-07 03:23 | 33.63683 | -84.43053 | 1006 ft | 12 kts | 146° |
| 2026-05-07 03:23 | 33.63664 | -84.42963 | 1006 ft | 12 kts | 90° |
| 2026-05-07 03:24 | 33.63665 | -84.42828 | 1006 ft | 20 kts | 89° |
| 2026-05-07 03:24 | 33.63653 | -84.42659 | 1007 ft | 20 kts | 89° |
| 2026-05-07 03:24 | 33.63655 | -84.42493 | 1007 ft | 19 kts | 90° |
| 2026-05-07 03:24 | 33.63654 | -84.42343 | 1007 ft | 17 kts | 90° |
| 2026-05-07 03:25 | 33.63655 | -84.42211 | 1007 ft | 15 kts | 87° |
| 2026-05-07 03:25 | 33.63655 | -84.42064 | 1007 ft | 20 kts | 90° |
| 2026-05-07 03:25 | 33.63655 | -84.41895 | 1006 ft | 20 kts | 90° |
| 2026-05-07 03:25 | 33.63654 | -84.41741 | 1006 ft | 17 kts | 88° |
| 2026-05-07 03:26 | 33.63655 | -84.41602 | 1006 ft | 16 kts | 91° |
| 2026-05-07 03:26 | 33.63655 | -84.41467 | 1006 ft | 21 kts | 89° |
| 2026-05-07 03:26 | 33.63654 | -84.41289 | 1006 ft | 21 kts | 90° |
| 2026-05-07 03:26 | 33.63655 | -84.41120 | 1006 ft | 19 kts | 89° |
| 2026-05-07 03:27 | 33.63656 | -84.40973 | 1006 ft | 12 kts | 90° |
| 2026-05-07 03:27 | 33.63623 | -84.40909 | 1006 ft | 9 kts | 171° |
| 2026-05-07 03:27 | 33.63574 | -84.40909 | 1006 ft | 0 kts | 180° |
| 2026-05-07 03:28 | 33.63568 | -84.40909 | 1006 ft | 5 kts | 180° |
| 2026-05-07 03:28 | 33.63504 | -84.40910 | 1007 ft | 9 kts | 181° |
| 2026-05-07 03:29 | 33.63470 | -84.40941 | 1007 ft | 7 kts | 272° |
| 2026-05-07 03:29 | 33.63470 | -84.40961 | 1007 ft | 0 kts | 270° |
| 2026-05-07 03:30 | 33.63470 | -84.40962 | 1007 ft | 1 kts | 270° |
| 2026-05-07 03:30 | 33.63471 | -84.41102 | 1005 ft | 47 kts | 269° |
| 2026-05-07 03:31 | 33.63469 | -84.41770 | 1006 ft | 110 kts | 270° |
| 2026-05-07 03:31 | 33.63471 | -84.42910 | 1009 ft | 161 kts | 270° |
| 2026-05-07 03:31 | 33.63480 | -84.44315 | 1509 ft | 168 kts | 267° |
| 2026-05-07 03:31 | 33.63473 | -84.45725 | 2205 ft | 170 kts | 263° |
| 2026-05-07 03:32 | 33.63449 | -84.47157 | 2871 ft | 173 kts | 259° |
| 2026-05-07 03:32 | 33.63138 | -84.48584 | 3147 ft | 187 kts | 236° |
| 2026-05-07 03:32 | 33.62409 | -84.50014 | 3437 ft | 212 kts | 236° |
| 2026-05-07 03:32 | 33.61660 | -84.51649 | 3900 ft | 234 kts | 239° |
| 2026-05-07 03:33 | 33.60910 | -84.53428 | 4630 ft | 242 kts | 241° |
| 2026-05-07 03:33 | 33.60152 | -84.55245 | 5504 ft | 245 kts | 242° |
| 2026-05-07 03:33 | 33.59404 | -84.57095 | 6418 ft | 245 kts | 244° |
| 2026-05-07 03:33 | 33.58394 | -84.58741 | 7166 ft | 253 kts | 218° |
| 2026-05-07 03:34 | 33.56705 | -84.59450 | 7927 ft | 270 kts | 189° |
| 2026-05-07 03:34 | 33.54808 | -84.59345 | 8638 ft | 275 kts | 180° |
| 2026-05-07 03:34 | 33.52894 | -84.59034 | 9532 ft | 280 kts | 180° |
| 2026-05-07 03:34 | 33.50948 | -84.58764 | 10283 ft | 281 kts | 182° |
| 2026-05-07 03:35 | 33.48988 | -84.58491 | 10967 ft | 291 kts | 173° |
| 2026-05-07 03:35 | 33.47139 | -84.57353 | 11643 ft | 313 kts | 144° |
| 2026-05-07 03:35 | 33.45817 | -84.55156 | 12000 ft | 345 kts | 116° |
| 2026-05-07 03:35 | 33.45239 | -84.52242 | 12198 ft | 373 kts | 99° |
| 2026-05-07 03:36 | 33.45110 | -84.49096 | 12679 ft | 383 kts | 92° |
| 2026-05-07 03:36 | 33.45215 | -84.45867 | 13320 ft | 389 kts | 88° |
| 2026-05-07 03:36 | 33.45390 | -84.42642 | 13968 ft | 392 kts | 88° |
| 2026-05-07 03:36 | 33.45543 | -84.39361 | 14549 ft | 395 kts | 89° |
| 2026-05-07 03:37 | 33.45753 | -84.36057 | 15158 ft | 400 kts | 82° |
| 2026-05-07 03:37 | 33.46344 | -84.32791 | 15717 ft | 404 kts | 72° |
| 2026-05-07 03:37 | 33.47372 | -84.29658 | 16292 ft | 406 kts | 61° |
| 2026-05-07 03:37 | 33.48691 | -84.26650 | 16862 ft | 408 kts | 59° |
| 2026-05-07 03:38 | 33.50040 | -84.23629 | 17434 ft | 411 kts | 59° |
| 2026-05-07 03:38 | 33.51399 | -84.20603 | 18026 ft | 414 kts | 58° |
| 2026-05-07 03:38 | 33.52767 | -84.17559 | 18555 ft | 417 kts | 58° |
| 2026-05-07 03:38 | 33.54146 | -84.14485 | 19028 ft | 420 kts | 58° |
| 2026-05-07 03:39 | 33.55536 | -84.11378 | 19459 ft | 426 kts | 58° |
| 2026-05-07 03:39 | 33.56946 | -84.08227 | 19840 ft | 432 kts | 58° |
| 2026-05-07 03:39 | 33.58376 | -84.05021 | 20307 ft | 437 kts | 58° |
| 2026-05-07 03:39 | 33.59814 | -84.01793 | 20773 ft | 441 kts | 58° |
| 2026-05-07 03:40 | 33.61245 | -83.98565 | 21260 ft | 445 kts | 58° |
| 2026-05-07 03:40 | 33.62712 | -83.95239 | 21754 ft | 449 kts | 58° |
| 2026-05-07 03:40 | 33.64176 | -83.91918 | 22221 ft | 452 kts | 58° |
| 2026-05-07 03:40 | 33.65655 | -83.88574 | 22696 ft | 455 kts | 58° |
| 2026-05-07 03:41 | 33.67134 | -83.85236 | 23174 ft | 459 kts | 58° |
| 2026-05-07 03:41 | 33.68640 | -83.81839 | 23633 ft | 462 kts | 58° |
| 2026-05-07 03:41 | 33.70150 | -83.78427 | 24007 ft | 465 kts | 58° |
| 2026-05-07 03:41 | 33.71677 | -83.74965 | 24381 ft | 468 kts | 58° |
| 2026-05-07 03:42 | 33.73200 | -83.71507 | 24751 ft | 471 kts | 58° |
| 2026-05-07 03:42 | 33.74736 | -83.68015 | 25100 ft | 474 kts | 58° |
| 2026-05-07 03:42 | 33.76300 | -83.64489 | 25476 ft | 476 kts | 57° |
| 2026-05-07 03:42 | 33.77963 | -83.61052 | 25824 ft | 478 kts | 54° |
| 2026-05-07 03:43 | 33.79748 | -83.57664 | 26190 ft | 480 kts | 52° |
| 2026-05-07 03:43 | 33.81608 | -83.54314 | 26516 ft | 482 kts | 51° |
| 2026-05-07 03:43 | 33.83501 | -83.50971 | 26835 ft | 485 kts | 51° |
| 2026-05-07 03:43 | 33.85394 | -83.47602 | 27161 ft | 488 kts | 51° |
| 2026-05-07 03:44 | 33.87269 | -83.44192 | 27479 ft | 491 kts | 52° |
| 2026-05-07 03:44 | 33.89131 | -83.40727 | 27815 ft | 494 kts | 53° |
| 2026-05-07 03:44 | 33.90988 | -83.37217 | 28149 ft | 497 kts | 53° |
| 2026-05-07 03:44 | 33.92842 | -83.33692 | 28468 ft | 500 kts | 53° |
| 2026-05-07 03:45 | 33.94710 | -83.30144 | 28786 ft | 502 kts | 53° |
| 2026-05-07 03:45 | 33.96585 | -83.26598 | 29093 ft | 504 kts | 53° |
| 2026-05-07 03:45 | 33.98455 | -83.23070 | 29392 ft | 507 kts | 53° |
| 2026-05-07 03:45 | 34.00359 | -83.19488 | 29688 ft | 509 kts | 53° |
| 2026-05-07 03:46 | 34.02267 | -83.15893 | 29974 ft | 511 kts | 53° |
| 2026-05-07 03:46 | 34.04184 | -83.12267 | 30314 ft | 511 kts | 54° |
| 2026-05-07 03:46 | 34.06090 | -83.08662 | 30623 ft | 511 kts | 53° |
| 2026-05-07 03:46 | 34.08009 | -83.05035 | 30869 ft | 512 kts | 53° |
| 2026-05-07 03:47 | 34.09927 | -83.01410 | 31105 ft | 514 kts | 53° |
| 2026-05-07 03:47 | 34.11853 | -82.97768 | 31360 ft | 515 kts | 53° |
| 2026-05-07 03:47 | 34.13776 | -82.94121 | 31686 ft | 514 kts | 53° |
| 2026-05-07 03:47 | 34.15686 | -82.90478 | 31990 ft | 514 kts | 53° |
| 2026-05-07 03:48 | 34.17594 | -82.86819 | 32282 ft | 514 kts | 54° |
| 2026-05-07 03:48 | 34.19489 | -82.83175 | 32576 ft | 513 kts | 54° |
| 2026-05-07 03:48 | 34.21386 | -82.79527 | 32880 ft | 513 kts | 53° |
| 2026-05-07 03:48 | 34.23284 | -82.75880 | 33173 ft | 513 kts | 53° |
| 2026-05-07 03:49 | 34.25179 | -82.72237 | 33511 ft | 511 kts | 53° |
| 2026-05-07 03:49 | 34.27072 | -82.68595 | 33825 ft | 511 kts | 53° |
| 2026-05-07 03:49 | 34.28970 | -82.64943 | 34049 ft | 512 kts | 53° |
| 2026-05-07 03:49 | 34.30862 | -82.61295 | 34251 ft | 513 kts | 53° |
| 2026-05-07 03:50 | 34.32756 | -82.57635 | 34471 ft | 514 kts | 53° |
| 2026-05-07 03:50 | 34.34655 | -82.53966 | 34679 ft | 515 kts | 53° |
| 2026-05-07 03:50 | 34.36560 | -82.50286 | 34877 ft | 516 kts | 53° |
| 2026-05-07 03:50 | 34.38469 | -82.46599 | 35092 ft | 516 kts | 53° |
| 2026-05-07 03:51 | 34.40370 | -82.42923 | 35288 ft | 517 kts | 53° |
| 2026-05-07 03:51 | 34.42285 | -82.39210 | 35507 ft | 518 kts | 52° |
| 2026-05-07 03:51 | 34.44183 | -82.35517 | 35736 ft | 517 kts | 52° |
| 2026-05-07 03:51 | 34.46046 | -82.31777 | 35932 ft | 518 kts | 54° |
| 2026-05-07 03:52 | 34.47829 | -82.27981 | 36117 ft | 520 kts | 56° |
| 2026-05-07 03:52 | 34.49558 | -82.24130 | 36325 ft | 521 kts | 57° |
| 2026-05-07 03:52 | 34.51270 | -82.20235 | 36459 ft | 523 kts | 57° |
| 2026-05-07 03:52 | 34.53071 | -82.16422 | 36586 ft | 520 kts | 50° |
| 2026-05-07 03:53 | 34.55163 | -82.12852 | 36720 ft | 518 kts | 47° |
| 2026-05-07 03:53 | 34.57290 | -82.09336 | 36874 ft | 518 kts | 47° |
| 2026-05-07 03:53 | 34.59444 | -82.05823 | 36991 ft | 518 kts | 46° |
| 2026-05-07 03:54 | 34.63759 | -81.98802 | 37004 ft | 517 kts | 46° |
| 2026-05-07 03:54 | 34.68038 | -81.91787 | 37000 ft | 517 kts | 47° |
| 2026-05-07 03:55 | 34.72305 | -81.84742 | 37043 ft | 518 kts | 47° |
| 2026-05-07 03:55 | 34.76622 | -81.77597 | 36998 ft | 529 kts | 46° |
| 2026-05-07 03:56 | 34.81008 | -81.70332 | 36998 ft | 535 kts | 46° |
| 2026-05-07 03:56 | 34.85406 | -81.63017 | 36997 ft | 535 kts | 46° |
| 2026-05-07 03:57 | 34.89777 | -81.55721 | 37000 ft | 533 kts | 46° |
| 2026-05-07 03:57 | 34.94144 | -81.48430 | 37006 ft | 533 kts | 46° |
| 2026-05-07 03:58 | 34.98498 | -81.41163 | 37008 ft | 534 kts | 45° |
| 2026-05-07 03:58 | 35.02821 | -81.33926 | 36998 ft | 535 kts | 45° |
| 2026-05-07 03:59 | 35.07204 | -81.26577 | 36988 ft | 536 kts | 45° |
| 2026-05-07 03:59 | 35.11579 | -81.19215 | 37003 ft | 535 kts | 45° |
| 2026-05-07 04:00 | 35.15945 | -81.11839 | 37024 ft | 534 kts | 45° |
| 2026-05-07 04:00 | 35.20301 | -81.04490 | 37011 ft | 535 kts | 45° |
| 2026-05-07 04:01 | 35.24670 | -80.97129 | 36997 ft | 536 kts | 45° |
| 2026-05-07 04:01 | 35.29044 | -80.89727 | 36984 ft | 537 kts | 45° |
| 2026-05-07 04:02 | 35.33408 | -80.82313 | 37035 ft | 536 kts | 45° |
| 2026-05-07 04:02 | 35.37761 | -80.74912 | 37042 ft | 535 kts | 45° |
| 2026-05-07 04:03 | 35.42118 | -80.67502 | 37029 ft | 536 kts | 45° |
| 2026-05-07 04:03 | 35.46478 | -80.60071 | 36929 ft | 538 kts | 45° |
| 2026-05-07 04:04 | 35.50838 | -80.52601 | 36925 ft | 539 kts | 45° |
| 2026-05-07 04:04 | 35.55202 | -80.45108 | 36945 ft | 539 kts | 45° |
| 2026-05-07 04:05 | 35.59567 | -80.37602 | 36954 ft | 539 kts | 45° |
| 2026-05-07 04:05 | 35.63928 | -80.30100 | 37000 ft | 539 kts | 45° |
| 2026-05-07 04:06 | 35.68273 | -80.22591 | 37005 ft | 539 kts | 45° |
| 2026-05-07 04:06 | 35.72613 | -80.15087 | 36925 ft | 538 kts | 45° |
| 2026-05-07 04:07 | 35.76934 | -80.07588 | 36967 ft | 536 kts | 45° |
| 2026-05-07 04:07 | 35.81218 | -80.00141 | 37041 ft | 535 kts | 45° |
| 2026-05-07 04:08 | 35.85509 | -79.92659 | 37018 ft | 535 kts | 45° |
| 2026-05-07 04:08 | 35.89834 | -79.85103 | 36944 ft | 536 kts | 45° |
| 2026-05-07 04:09 | 35.93410 | -79.78855 | 36929 ft | 536 kts | 45° |
| 2026-05-07 04:09 | 35.97778 | -79.71408 | 36953 ft | 534 kts | 44° |
| 2026-05-07 04:10 | 36.02875 | -79.62807 | 37000 ft | 534 kts | 44° |
| 2026-05-07 04:10 | 36.06523 | -79.56585 | 37016 ft | 534 kts | 44° |
| 2026-05-07 04:11 | 36.10873 | -79.49107 | 36981 ft | 536 kts | 44° |
| 2026-05-07 04:11 | 36.15223 | -79.41600 | 36945 ft | 537 kts | 44° |
| 2026-05-07 04:12 | 36.19571 | -79.34099 | 36965 ft | 536 kts | 44° |
| 2026-05-07 04:12 | 36.23926 | -79.26606 | 36987 ft | 535 kts | 44° |
| 2026-05-07 04:13 | 36.28246 | -79.19169 | 37042 ft | 535 kts | 44° |
| 2026-05-07 04:13 | 36.32612 | -79.11640 | 37042 ft | 535 kts | 44° |
| 2026-05-07 04:14 | 36.36914 | -79.04167 | 37027 ft | 535 kts | 45° |
| 2026-05-07 04:14 | 36.41233 | -78.96628 | 37031 ft | 534 kts | 45° |
| 2026-05-07 04:15 | 36.45539 | -78.89117 | 37011 ft | 533 kts | 45° |
| 2026-05-07 04:15 | 36.49844 | -78.81602 | 37011 ft | 533 kts | 45° |
| 2026-05-07 04:16 | 36.54120 | -78.74081 | 36984 ft | 533 kts | 45° |
| 2026-05-07 04:16 | 36.58485 | -78.66679 | 36966 ft | 522 kts | 37° |
| 2026-05-07 04:16 | 36.60991 | -78.63490 | 36971 ft | 511 kts | 31° |
| 2026-05-07 04:17 | 36.63559 | -78.60424 | 36984 ft | 510 kts | 31° |
| 2026-05-07 04:17 | 36.68676 | -78.54323 | 37053 ft | 509 kts | 31° |
| 2026-05-07 04:18 | 36.73786 | -78.48220 | 36959 ft | 508 kts | 31° |
| 2026-05-07 04:18 | 36.78890 | -78.42108 | 36959 ft | 509 kts | 31° |
| 2026-05-07 04:19 | 36.83999 | -78.35966 | 36959 ft | 510 kts | 31° |
| 2026-05-07 04:19 | 36.89071 | -78.29855 | 36960 ft | 510 kts | 31° |
| 2026-05-07 04:20 | 36.94188 | -78.23672 | 36970 ft | 511 kts | 31° |
| 2026-05-07 04:20 | 36.99352 | -78.17455 | 36118 ft | 524 kts | 31° |
| 2026-05-07 04:21 | 37.04574 | -78.11135 | 34915 ft | 520 kts | 32° |
| 2026-05-07 04:21 | 37.07169 | -78.07979 | 34294 ft | 520 kts | 33° |
| 2026-05-07 04:21 | 37.09755 | -78.04828 | 33635 ft | 519 kts | 33° |
| 2026-05-07 04:21 | 37.12344 | -78.01671 | 33038 ft | 517 kts | 33° |
| 2026-05-07 04:22 | 37.14914 | -77.98545 | 32398 ft | 515 kts | 34° |
| 2026-05-07 04:22 | 37.17481 | -77.95422 | 31780 ft | 512 kts | 34° |
| 2026-05-07 04:22 | 37.20028 | -77.92319 | 31371 ft | 506 kts | 36° |
| 2026-05-07 04:22 | 37.22516 | -77.89278 | 31147 ft | 494 kts | 36° |
| 2026-05-07 04:23 | 37.24961 | -77.86281 | 30807 ft | 491 kts | 36° |
| 2026-05-07 04:23 | 37.27417 | -77.83288 | 30084 ft | 494 kts | 37° |
| 2026-05-07 04:23 | 37.29896 | -77.80271 | 29356 ft | 495 kts | 37° |
| 2026-05-07 04:23 | 37.32359 | -77.77265 | 28729 ft | 493 kts | 37° |
| 2026-05-07 04:24 | 37.34811 | -77.74265 | 28032 ft | 493 kts | 37° |
| 2026-05-07 04:24 | 37.37261 | -77.71255 | 27375 ft | 491 kts | 38° |
| 2026-05-07 04:24 | 37.39701 | -77.68248 | 26714 ft | 490 kts | 38° |
| 2026-05-07 04:24 | 37.42129 | -77.65251 | 26062 ft | 489 kts | 38° |
| 2026-05-07 04:25 | 37.44552 | -77.62259 | 25422 ft | 487 kts | 38° |
| 2026-05-07 04:25 | 37.46965 | -77.59288 | 24794 ft | 485 kts | 38° |
| 2026-05-07 04:25 | 37.49370 | -77.56326 | 24185 ft | 482 kts | 38° |
| 2026-05-07 04:25 | 37.51757 | -77.53384 | 23598 ft | 479 kts | 38° |
| 2026-05-07 04:26 | 37.54123 | -77.50460 | 23032 ft | 474 kts | 38° |
| 2026-05-07 04:26 | 37.56544 | -77.47680 | 22402 ft | 465 kts | 30° |
| 2026-05-07 04:26 | 37.59195 | -77.45469 | 21890 ft | 450 kts | 20° |
| 2026-05-07 04:26 | 37.61977 | -77.43888 | 21567 ft | 424 kts | 10° |
| 2026-05-07 04:27 | 37.64736 | -77.42866 | 20860 ft | 406 kts | 4° |
| 2026-05-07 04:27 | 37.67458 | -77.42019 | 20429 ft | 402 kts | 4° |
| 2026-05-07 04:27 | 37.70171 | -77.41196 | 19955 ft | 400 kts | 4° |
| 2026-05-07 04:27 | 37.72868 | -77.40385 | 19490 ft | 397 kts | 4° |
| 2026-05-07 04:28 | 37.75549 | -77.39576 | 19019 ft | 395 kts | 4° |
| 2026-05-07 04:28 | 37.78205 | -77.38765 | 18627 ft | 391 kts | 4° |
| 2026-05-07 04:28 | 37.80842 | -77.37951 | 18133 ft | 390 kts | 4° |
| 2026-05-07 04:28 | 37.83463 | -77.37134 | 17651 ft | 386 kts | 4° |
| 2026-05-07 04:29 | 37.86066 | -77.36326 | 17199 ft | 383 kts | 5° |
| 2026-05-07 04:29 | 37.88640 | -77.35531 | 16802 ft | 380 kts | 5° |
| 2026-05-07 04:29 | 37.91201 | -77.34739 | 16358 ft | 378 kts | 5° |
| 2026-05-07 04:29 | 37.93748 | -77.33955 | 15919 ft | 376 kts | 5° |
| 2026-05-07 04:30 | 37.96293 | -77.33176 | 15476 ft | 375 kts | 6° |
| 2026-05-07 04:30 | 37.98832 | -77.32400 | 15041 ft | 375 kts | 6° |
| 2026-05-07 04:30 | 38.01368 | -77.31622 | 14593 ft | 375 kts | 6° |
| 2026-05-07 04:30 | 38.03900 | -77.30846 | 14160 ft | 374 kts | 7° |
| 2026-05-07 04:31 | 38.06412 | -77.30069 | 13904 ft | 367 kts | 7° |
| 2026-05-07 04:31 | 38.08857 | -77.29303 | 13787 ft | 356 kts | 7° |
| 2026-05-07 04:31 | 38.11217 | -77.28553 | 13474 ft | 343 kts | 7° |
| 2026-05-07 04:31 | 38.13504 | -77.27827 | 12871 ft | 337 kts | 7° |
| 2026-05-07 04:32 | 38.15765 | -77.27117 | 12263 ft | 332 kts | 7° |
| 2026-05-07 04:32 | 38.17981 | -77.26423 | 11739 ft | 325 kts | 7° |
| 2026-05-07 04:32 | 38.20166 | -77.25742 | 11349 ft | 322 kts | 6° |
| 2026-05-07 04:32 | 38.22340 | -77.25062 | 10964 ft | 322 kts | 6° |
| 2026-05-07 04:33 | 38.24519 | -77.24376 | 10580 ft | 322 kts | 6° |
| 2026-05-07 04:33 | 38.26686 | -77.23689 | 10196 ft | 321 kts | 6° |
| 2026-05-07 04:33 | 38.28854 | -77.23002 | 9829 ft | 321 kts | 7° |
| 2026-05-07 04:33 | 38.31017 | -77.22316 | 9424 ft | 319 kts | 8° |
| 2026-05-07 04:34 | 38.33126 | -77.21462 | 9063 ft | 322 kts | 20° |
| 2026-05-07 04:34 | 38.35050 | -77.19952 | 8595 ft | 328 kts | 36° |
| 2026-05-07 04:34 | 38.36757 | -77.18033 | 8070 ft | 325 kts | 38° |
| 2026-05-07 04:34 | 38.38421 | -77.16139 | 7580 ft | 315 kts | 38° |
| 2026-05-07 04:35 | 38.40031 | -77.14308 | 7105 ft | 306 kts | 38° |
| 2026-05-07 04:35 | 38.41599 | -77.12528 | 6658 ft | 297 kts | 38° |
| 2026-05-07 04:35 | 38.43125 | -77.10804 | 6184 ft | 290 kts | 38° |
| 2026-05-07 04:35 | 38.44601 | -77.09139 | 5727 ft | 282 kts | 38° |
| 2026-05-07 04:36 | 38.46066 | -77.07484 | 5287 ft | 273 kts | 38° |
| 2026-05-07 04:36 | 38.47471 | -77.05897 | 4871 ft | 267 kts | 38° |
| 2026-05-07 04:36 | 38.48847 | -77.04345 | 4451 ft | 261 kts | 39° |
| 2026-05-07 04:36 | 38.50198 | -77.02834 | 4051 ft | 254 kts | 35° |
| 2026-05-07 04:37 | 38.51660 | -77.01735 | 3789 ft | 240 kts | 18° |
| 2026-05-07 04:37 | 38.53249 | -77.01182 | 3752 ft | 236 kts | 3° |
| 2026-05-07 04:37 | 38.54879 | -77.00977 | 3656 ft | 234 kts | 0° |
| 2026-05-07 04:37 | 38.56500 | -77.00925 | 3555 ft | 231 kts | 353° |
| 2026-05-07 04:38 | 38.58094 | -77.01051 | 3461 ft | 230 kts | 351° |
| 2026-05-07 04:38 | 38.59704 | -77.01216 | 3356 ft | 229 kts | 351° |
| 2026-05-07 04:38 | 38.61300 | -77.01379 | 3254 ft | 229 kts | 351° |
| 2026-05-07 04:38 | 38.62864 | -77.01535 | 3165 ft | 221 kts | 352° |
| 2026-05-07 04:39 | 38.64340 | -77.01682 | 3053 ft | 211 kts | 353° |
| 2026-05-07 04:39 | 38.65757 | -77.01824 | 2995 ft | 198 kts | 354° |
| 2026-05-07 04:39 | 38.67105 | -77.01960 | 2882 ft | 191 kts | 354° |
| 2026-05-07 04:39 | 38.68412 | -77.02092 | 2776 ft | 187 kts | 354° |
| 2026-05-07 04:40 | 38.69703 | -77.02221 | 2565 ft | 185 kts | 355° |
| 2026-05-07 04:40 | 38.70965 | -77.02348 | 2379 ft | 179 kts | 355° |
| 2026-05-07 04:40 | 38.72191 | -77.02471 | 2295 ft | 176 kts | 355° |
| 2026-05-07 04:40 | 38.73416 | -77.02594 | 2128 ft | 176 kts | 355° |
| 2026-05-07 04:41 | 38.74632 | -77.02716 | 1909 ft | 174 kts | 354° |
| 2026-05-07 04:41 | 38.75818 | -77.02835 | 1689 ft | 164 kts | 355° |
| 2026-05-07 04:41 | 38.76899 | -77.02944 | 1468 ft | 148 kts | 355° |
| 2026-05-07 04:41 | 38.77883 | -77.03043 | 1286 ft | 138 kts | 354° |
| 2026-05-07 04:42 | 38.78815 | -77.03137 | 1117 ft | 133 kts | 355° |
| 2026-05-07 04:42 | 38.79734 | -77.03229 | 942 ft | 132 kts | 355° |
| 2026-05-07 04:42 | 38.80653 | -77.03322 | 757 ft | 132 kts | 355° |
| 2026-05-07 04:42 | 38.81578 | -77.03415 | 583 ft | 134 kts | 354° |
| 2026-05-07 04:43 | 38.82496 | -77.03513 | 377 ft | 132 kts | 353° |
| 2026-05-07 04:43 | 38.83389 | -77.03601 | 178 ft | 129 kts | 353° |
| 2026-05-07 04:43 | 38.84289 | -77.03694 | 42 ft | 127 kts | 354° |
| 2026-05-07 04:43 | 38.85035 | -77.03766 | 24 ft | 83 kts | 355° |
| 2026-05-07 04:44 | 38.85442 | -77.03803 | 29 ft | 34 kts | 356° |
| 2026-05-07 04:44 | 38.85630 | -77.03823 | 29 ft | 24 kts | 355° |
| 2026-05-07 04:44 | 38.85785 | -77.03838 | 30 ft | 21 kts | 355° |
| 2026-05-07 04:44 | 38.85902 | -77.03887 | 28 ft | 14 kts | 315° |
| 2026-05-07 04:45 | 38.85879 | -77.03988 | 27 ft | 12 kts | 195° |
| 2026-05-07 04:45 | 38.85804 | -77.03983 | 28 ft | 10 kts | 176° |
| 2026-05-07 04:45 | 38.85712 | -77.03974 | 28 ft | 13 kts | 176° |
| 2026-05-07 04:45 | 38.85625 | -77.03965 | 27 ft | 12 kts | 174° |
| 2026-05-07 04:46 | 38.85545 | -77.03957 | 27 ft | 11 kts | 176° |
| 2026-05-07 04:46 | 38.85471 | -77.03949 | 30 ft | 13 kts | 175° |
| 2026-05-07 04:46 | 38.85376 | -77.03940 | 23 ft | 12 kts | 175° |
| 2026-05-07 04:46 | 38.85341 | -77.03981 | 23 ft | 6 kts | 261° |
| 2026-05-07 04:47 | 38.85338 | -77.04013 | 25 ft | 1 kts | 265° |
| 2026-05-07 04:47 | 38.85334 | -77.04035 | 24 ft | 5 kts | 256° |
| 2026-05-07 04:47 | 38.85326 | -77.04070 | 25 ft | 6 kts | 251° |
| 2026-05-07 04:47 | 38.85312 | -77.04126 | 25 ft | 6 kts | 252° |
| 2026-05-07 04:48 | 38.85302 | -77.04166 | 25 ft | 4 kts | 251° |
| 2026-05-07 04:48 | 38.85297 | -77.04185 | 27 ft | 3 kts | 251° |
| 2026-05-07 04:48 | 38.85293 | -77.04201 | 27 ft | 0 kts | 251° |
| 2026-05-07 04:49 | 38.85291 | -77.04206 | 26 ft | 3 kts | 247° |
| 2026-05-07 04:49 | 38.85270 | -77.04215 | 26 ft | 3 kts | 177° |
| 2026-05-07 04:50 | 38.85253 | -77.04208 | 26 ft | 3 kts | 163° |
| 2026-05-07 04:50 | 38.85236 | -77.04202 | 25 ft | 2 kts | 163° |
| 2026-05-07 04:50 | 38.85232 | -77.04200 | 25 ft | 0 kts | 163° |
| 2026-05-07 04:52 | 38.85231 | -77.04200 | 25 ft | 0 kts | 163° |